Time;durP1;ratioP1;P1;durP2;ratioP2;P2;SDS_P1;SDS_P2;PMS_P1;PMS_P2;Temp;Humidity;BMP_temperature;BMP_pressure;BME280_temperature;BME280_humidity;BME280_pressure;Samples;Min_cycle;Max_cycle;Signal;HPM_P1;HPM_P2
2022/12/28 00:00:07;;;;;;;;;;;;;;;;;;1019342;29;19911;-75
2022/12/28 00:00:38;;;;;;;;;;;;;;;;;;1019147;29;20689;-75
2022/12/28 00:01:09;;;;;;;;;;;;;;;;;;1018715;29;19911;-75
2022/12/28 00:01:39;;;;;;;;;;;;;;;;;;1019038;29;19911;-74
2022/12/28 00:02:10;;;;;;;;;;;;;;;;;;1018410;29;19981;-76
2022/12/28 00:02:41;;;;;;;;;;;;;;;;;;1019718;29;19914;-75
2022/12/28 00:03:12;;;;;;;;;;;;;;;;;;1018649;29;20646;-75
2022/12/28 00:03:43;;;;;;;;;;;;;;;;;;1022544;29;19910;-76
2022/12/28 00:04:14;;;;;;;;;;;;;;;;;;1018469;29;19945;-75
2022/12/28 00:04:45;;;;;;;;;;;;;;;;;;1018854;29;19922;-76
2022/12/28 00:05:16;;;;;;;;;;;;;;;;;;1023506;29;19911;-75
2022/12/28 00:05:47;;;;;;;;;;;;;;;;;;1018538;29;19978;-76
2022/12/28 00:06:18;;;;;;;;;;;;;;;;;;1018508;29;19998;-75
2022/12/28 00:06:49;;;;;;;;;;;;;;;;;;1022712;29;20325;-75
2022/12/28 00:07:20;;;;;;;;;;;;;;;;;;1022656;28;20019;-76
2022/12/28 00:07:51;;;;;;;;;;;;;;;;;;1028087;28;20891;-76
2022/12/28 00:08:22;;;;;;;;;;;;;;;;;;1022334;29;19990;-76
2022/12/28 00:08:53;;;;;;;;;;;;;;;;;;1018500;29;19907;-76
2022/12/28 00:09:24;;;;;;;;;;;;;;;;;;1018429;29;20271;-75
2022/12/28 00:09:54;;;;;;;;;;;;;;;;;;1018955;29;20410;-75
2022/12/28 00:10:25;;;;;;;;;;;;;;;;;;1019484;29;19911;-75
2022/12/28 00:10:56;;;;;;;;;;;;;;;;;;1022650;29;20695;-76
2022/12/28 00:11:27;;;;;;;;;;;;;;;;;;1022221;29;19910;-76
2022/12/28 00:11:58;;;;;;;;;;;;;;;;;;1022541;29;19911;-77
2022/12/28 00:12:29;;;;;;;;;;;;;;;;;;1022193;29;20494;-77
2022/12/28 00:13:00;;;;;;;;;;;;;;;;;;1023206;29;19925;-75
2022/12/28 00:13:31;;;;;;;;;;;;;;;;;;1022886;29;19970;-75
2022/12/28 00:14:01;;;;;;;;;;;;;;;;;;1022469;29;19910;-76
2022/12/28 00:14:32;;;;;;;;;;;;;;;;;;1022768;29;19979;-75
2022/12/28 00:15:03;;;;;;;;;;;;;;;;;;1022627;29;19907;-75
2022/12/28 00:15:34;;;;;;;;;;;;;;;;;;1023149;29;19933;-76
2022/12/28 00:16:05;;;;;;;;;;;;;;;;;;1021905;29;19906;-75
2022/12/28 00:16:36;;;;;;;;;;;;;;;;;;1018479;29;19907;-76
2022/12/28 00:17:07;;;;;;;;;;;;;;;;;;1018609;29;19947;-76
2022/12/28 00:17:37;;;;;;;;;;;;;;;;;;1022815;29;20035;-75
2022/12/28 00:18:08;;;;;;;;;;;;;;;;;;1022694;29;19910;-76
2022/12/28 00:18:39;;;;;;;;;;;;;;;;;;1023188;29;20017;-75
2022/12/28 00:19:10;;;;;;;;;;;;;;;;;;1018230;29;19911;-76
2022/12/28 00:19:41;;;;;;;;;;;;;;;;;;1018874;29;19911;-76
2022/12/28 00:20:12;;;;;;;;;;;;;;;;;;1019003;29;20026;-75
2022/12/28 00:20:43;;;;;;;;;;;;;;;;;;1019098;29;20377;-75
2022/12/28 00:21:13;;;;;;;;;;;;;;;;;;1023250;29;19914;-76
2022/12/28 00:21:44;;;;;;;;;;;;;;;;;;1022720;29;19914;-76
2022/12/28 00:22:15;;;;;;;;;;;;;;;;;;1018748;29;20685;-76
2022/12/28 00:22:46;;;;;;;;;;;;;;;;;;1023311;28;19915;-76
2022/12/28 00:23:17;;;;;;;;;;;;;;;;;;1022772;28;20275;-76
2022/12/28 00:23:48;;;;;;;;;;;;;;;;;;1023395;29;20005;-75
2022/12/28 00:24:19;;;;;;;;;;;;;;;;;;1023007;28;19911;-75
2022/12/28 00:24:50;;;;;;;;;;;;;;;;;;1019337;29;20434;-75
2022/12/28 00:25:21;;;;;;;;;;;;;;;;;;1019792;29;19937;-75
2022/12/28 00:25:52;;;;;;;;;;;;;;;;;;1022531;29;20345;-76
2022/12/28 00:26:22;;;;;;;;;;;;;;;;;;1024140;28;20005;-75
2022/12/28 00:26:55;;;;;;;;;;;;;;;;;;1027194;28;19914;-76
2022/12/28 00:27:26;;;;;;;;;;;;;;;;;;1023461;28;19911;-76
2022/12/28 00:27:57;;;;;;;;;;;;;;;;;;1027728;28;19969;-75
2022/12/28 00:28:28;;;;;;;;;;;;;;;;;;1027659;28;19906;-75
2022/12/28 00:28:59;;;;;;;;;;;;;;;;;;1023508;29;19910;-75
2022/12/28 00:29:30;;;;;;;;;;;;;;;;;;1020596;29;20001;-76
2022/12/28 00:30:01;;;;;;;;;;;;;;;;;;1023440;29;19918;-76
2022/12/28 00:30:32;;;;;;;;;;;;;;;;;;1022053;29;19907;-75
2022/12/28 00:31:03;;;;;;;;;;;;;;;;;;1019657;29;19997;-76
2022/12/28 00:31:34;;;;;;;;;;;;;;;;;;1023737;29;19915;-76
2022/12/28 00:32:05;;;;;;;;;;;;;;;;;;1022744;29;19911;-76
2022/12/28 00:32:36;;;;;;;;;;;;;;;;;;1023021;29;20394;-76
2022/12/28 00:33:06;;;;;;;;;;;;;;;;;;1026777;28;19911;-75
2022/12/28 00:33:37;;;;;;;;;;;;;;;;;;1027563;28;19945;-75
2022/12/28 00:34:08;;;;;;;;;;;;;;;;;;1028215;28;19914;-76
2022/12/28 00:34:39;;;;;;;;;;;;;;;;;;1023084;29;19922;-77
2022/12/28 00:35:10;;;;;;;;;;;;;;;;;;1019073;29;20018;-75
2022/12/28 00:35:41;;;;;;;;;;;;;;;;;;1019265;29;19914;-75
2022/12/28 00:36:12;;;;;;;;;;;;;;;;;;1019258;29;19911;-74
2022/12/28 00:36:43;;;;;;;;;;;;;;;;;;1023943;28;19910;-76
2022/12/28 00:37:14;;;;;;;;;;;;;;;;;;1026403;28;19910;-76
2022/12/28 00:37:44;;;;;;;;;;;;;;;;;;1019222;29;19918;-76
2022/12/28 00:38:15;;;;;;;;;;;;;;;;;;1022837;28;20367;-76
2022/12/28 00:38:46;;;;;;;;;;;;;;;;;;1023067;29;20041;-76
2022/12/28 00:39:17;;;;;;;;;;;;;;;;;;1020414;29;20376;-76
2022/12/28 00:39:48;;;;;;;;;;;;;;;;;;1021543;29;20377;-75
2022/12/28 00:40:19;;;;;;;;;;;;;;;;;;1022817;29;19914;-74
2022/12/28 00:40:50;;;;;;;;;;;;;;;;;;1022997;29;19910;-75
2022/12/28 00:41:21;;;;;;;;;;;;;;;;;;1022990;29;20001;-75
2022/12/28 00:41:51;;;;;;;;;;;;;;;;;;1024036;29;20308;-76
2022/12/28 00:42:22;;;;;;;;;;;;;;;;;;1022721;29;19919;-76
2022/12/28 00:42:53;;;;;;;;;;;;;;;;;;1022926;29;20806;-76
2022/12/28 00:43:24;;;;;;;;;;;;;;;;;;1019006;29;19919;-76
2022/12/28 00:43:55;;;;;;;;;;;;;;;;;;1019448;29;19915;-76
2022/12/28 00:44:26;;;;;;;;;;;;;;;;;;1023743;29;19907;-76
2022/12/28 00:44:57;;;;;;;;;;;;;;;;;;1023157;29;19914;-76
2022/12/28 00:45:27;;;;;;;;;;;;;;;;;;1019009;29;20528;-77
2022/12/28 00:45:58;;;;;;;;;;;;;;;;;;1021497;29;19914;-77
2022/12/28 00:46:29;;;;;;;;;;;;;;;;;;1023018;29;20735;-76
2022/12/28 00:47:00;;;;;;;;;;;;;;;;;;1024179;28;19922;-77
2022/12/28 00:47:31;;;;;;;;;;;;;;;;;;1022118;28;20563;-76
2022/12/28 00:48:02;;;;;;;;;;;;;;;;;;1023179;29;19921;-77
2022/12/28 00:48:33;;;;;;;;;;;;;;;;;;1022958;29;19914;-78
2022/12/28 00:49:04;;;;;;;;;;;;;;;;;;1024131;28;19915;-76
2022/12/28 00:49:35;;;;;;;;;;;;;;;;;;1023602;29;19922;-77
2022/12/28 00:50:05;;;;;;;;;;;;;;;;;;1018125;29;20380;-77
2022/12/28 00:50:36;;;;;;;;;;;;;;;;;;1018368;29;19932;-75
2022/12/28 00:51:07;;;;;;;;;;;;;;;;;;1017347;29;19926;-77
2022/12/28 00:51:38;;;;;;;;;;;;;;;;;;1022394;28;20014;-77
2022/12/28 00:52:09;;;;;;;;;;;;;;;;;;1022985;29;19966;-77
2022/12/28 00:52:40;;;;;;;;;;;;;;;;;;1018377;29;20044;-77
2022/12/28 00:53:11;;;;;;;;;;;;;;;;;;1022245;29;19914;-77
2022/12/28 00:53:42;;;;;;;;;;;;;;;;;;1022574;28;19945;-77
2022/12/28 00:54:12;;;;;;;;;;;;;;;;;;1026820;28;19914;-76
2022/12/28 00:54:43;;;;;;;;;;;;;;;;;;1022700;29;19914;-77
2022/12/28 00:55:14;;;;;;;;;;;;;;;;;;1021995;29;19914;-77
2022/12/28 00:55:45;;;;;;;;;;;;;;;;;;1021656;29;19926;-78
2022/12/28 00:56:16;;;;;;;;;;;;;;;;;;1018294;29;19974;-76
2022/12/28 00:56:47;;;;;;;;;;;;;;;;;;1018779;29;19957;-76
2022/12/28 00:57:18;;;;;;;;;;;;;;;;;;1019829;29;19915;-75
2022/12/28 00:57:48;;;;;;;;;;;;;;;;;;1018976;29;20442;-75
2022/12/28 00:58:19;;;;;;;;;;;;;;;;;;1023093;29;19918;-77
2022/12/28 00:58:50;;;;;;;;;;;;;;;;;;1022912;28;20676;-76
2022/12/28 00:59:21;;;;;;;;;;;;;;;;;;1027528;28;20005;-77
2022/12/28 00:59:52;;;;;;;;;;;;;;;;;;1028442;28;20337;-76
2022/12/28 01:00:23;;;;;;;;;;;;;;;;;;1022916;29;19915;-77
2022/12/28 01:00:54;;;;;;;;;;;;;;;;;;1022766;29;19914;-77
2022/12/28 01:01:24;;;;;;;;;;;;;;;;;;1022799;29;19921;-76
2022/12/28 01:01:55;;;;;;;;;;;;;;;;;;1019296;29;19920;-77
2022/12/28 01:02:26;;;;;;;;;;;;;;;;;;1019437;29;19915;-77
2022/12/28 01:02:57;;;;;;;;;;;;;;;;;;1018868;29;20386;-76
2022/12/28 01:03:28;;;;;;;;;;;;;;;;;;1019048;29;19915;-77
2022/12/28 01:03:59;;;;;;;;;;;;;;;;;;1021272;29;20482;-77
2022/12/28 01:04:30;;;;;;;;;;;;;;;;;;1019208;29;19919;-77
2022/12/28 01:05:00;;;;;;;;;;;;;;;;;;1024085;29;19914;-76
2022/12/28 01:05:31;;;;;;;;;;;;;;;;;;1026628;28;20004;-75
2022/12/28 01:06:02;;;;;;;;;;;;;;;;;;1026780;28;19921;-76
2022/12/28 01:06:33;;;;;;;;;;;;;;;;;;1026900;28;20009;-75
2022/12/28 01:07:04;;;;;;;;;;;;;;;;;;1026896;28;19937;-75
2022/12/28 01:07:35;;;;;;;;;;;;;;;;;;1028196;28;19918;-75
2022/12/28 01:08:06;;;;;;;;;;;;;;;;;;1026859;28;19922;-76
2022/12/28 01:08:37;;;;;;;;;;;;;;;;;;1022989;29;20004;-76
2022/12/28 01:09:07;;;;;;;;;;;;;;;;;;1022590;29;20372;-76
2022/12/28 01:09:38;;;;;;;;;;;;;;;;;;1018165;29;19966;-75
2022/12/28 01:10:09;;;;;;;;;;;;;;;;;;1016054;29;19922;-75
2022/12/28 01:10:40;;;;;;;;;;;;;;;;;;1019567;29;19915;-75
2022/12/28 01:11:11;;;;;;;;;;;;;;;;;;1023031;28;20452;-76
2022/12/28 01:11:42;;;;;;;;;;;;;;;;;;1022771;29;19925;-75
2022/12/28 01:12:13;;;;;;;;;;;;;;;;;;1018675;29;20629;-75
2022/12/28 01:12:43;;;;;;;;;;;;;;;;;;1019763;29;20618;-74
2022/12/28 01:13:14;;;;;;;;;;;;;;;;;;1018994;29;19990;-75
2022/12/28 01:13:45;;;;;;;;;;;;;;;;;;1018990;29;20950;-75
2022/12/28 01:14:16;;;;;;;;;;;;;;;;;;1023006;29;19918;-75
2022/12/28 01:14:47;;;;;;;;;;;;;;;;;;1022679;29;19976;-74
2022/12/28 01:15:21;;;;;;;;;;;;;;;;;;1023790;28;19918;-75
2022/12/28 01:15:52;;;;;;;;;;;;;;;;;;1022629;29;19915;-76
2022/12/28 01:16:22;;;;;;;;;;;;;;;;;;1018317;29;19907;-75
2022/12/28 01:16:53;;;;;;;;;;;;;;;;;;1014383;29;19911;-75
2022/12/28 01:17:24;;;;;;;;;;;;;;;;;;1014857;29;20032;-75
2022/12/28 01:17:55;;;;;;;;;;;;;;;;;;1023627;28;19957;-75
2022/12/28 01:18:26;;;;;;;;;;;;;;;;;;1022805;29;19914;-75
2022/12/28 01:18:57;;;;;;;;;;;;;;;;;;1023373;29;20409;-75
2022/12/28 01:19:28;;;;;;;;;;;;;;;;;;1023336;29;19958;-75
2022/12/28 01:19:59;;;;;;;;;;;;;;;;;;1023781;28;20306;-74
2022/12/28 01:20:30;;;;;;;;;;;;;;;;;;1028420;28;20365;-75
2022/12/28 01:21:01;;;;;;;;;;;;;;;;;;1023197;29;20615;-75
2022/12/28 01:21:31;;;;;;;;;;;;;;;;;;1023678;29;19910;-75
2022/12/28 01:22:02;;;;;;;;;;;;;;;;;;1023546;29;20506;-75
2022/12/28 01:22:33;;;;;;;;;;;;;;;;;;1024023;28;20764;-75
2022/12/28 01:23:04;;;;;;;;;;;;;;;;;;1028833;28;19921;-75
2022/12/28 01:23:35;;;;;;;;;;;;;;;;;;1020233;29;20401;-76
2022/12/28 01:24:09;;;;;;;;;;;;;;;;;;1019356;29;19917;-76
2022/12/28 01:24:40;;;;;;;;;;;;;;;;;;1023611;29;19922;-76
2022/12/28 01:25:12;;;;;;;;;;;;;;;;;;1023860;28;19997;-76
2022/12/28 01:25:42;;;;;;;;;;;;;;;;;;1029145;28;19989;-75
2022/12/28 01:26:13;;;;;;;;;;;;;;;;;;1027853;28;19922;-75
2022/12/28 01:26:44;;;;;;;;;;;;;;;;;;1023997;29;20668;-74
2022/12/28 01:27:15;;;;;;;;;;;;;;;;;;1023468;29;19974;-73
2022/12/28 01:27:46;;;;;;;;;;;;;;;;;;1023797;29;19946;-75
2022/12/28 01:28:17;;;;;;;;;;;;;;;;;;1024422;29;19911;-75
2022/12/28 01:28:48;;;;;;;;;;;;;;;;;;1026561;28;19961;-75
2022/12/28 01:29:19;;;;;;;;;;;;;;;;;;1031338;28;19910;-75
2022/12/28 01:29:50;;;;;;;;;;;;;;;;;;1027867;28;19950;-77
2022/12/28 01:30:20;;;;;;;;;;;;;;;;;;1027832;28;19910;-77
2022/12/28 01:30:51;;;;;;;;;;;;;;;;;;1024518;29;19960;-75
2022/12/28 01:31:22;;;;;;;;;;;;;;;;;;1023873;29;19938;-77
2022/12/28 01:31:53;;;;;;;;;;;;;;;;;;1019634;29;19911;-76
2022/12/28 01:32:24;;;;;;;;;;;;;;;;;;1020017;29;20615;-77
2022/12/28 01:32:55;;;;;;;;;;;;;;;;;;1023635;29;19906;-74
2022/12/28 01:33:26;;;;;;;;;;;;;;;;;;1024380;28;19911;-76
2022/12/28 01:33:56;;;;;;;;;;;;;;;;;;1024025;29;19937;-76
2022/12/28 01:34:27;;;;;;;;;;;;;;;;;;1023610;29;20029;-75
2022/12/28 01:34:58;;;;;;;;;;;;;;;;;;1023875;29;19910;-76
2022/12/28 01:35:29;;;;;;;;;;;;;;;;;;1023523;28;20653;-76
2022/12/28 01:36:00;;;;;;;;;;;;;;;;;;1028475;28;20098;-76
2022/12/28 01:36:31;;;;;;;;;;;;;;;;;;1028522;28;20609;-75
2022/12/28 01:37:02;;;;;;;;;;;;;;;;;;1028162;28;19914;-76
2022/12/28 01:37:32;;;;;;;;;;;;;;;;;;1023649;29;19910;-76
2022/12/28 01:38:03;;;;;;;;;;;;;;;;;;1023563;29;19914;-75
2022/12/28 01:38:34;;;;;;;;;;;;;;;;;;1019093;29;19915;-76
2022/12/28 01:39:05;;;;;;;;;;;;;;;;;;1016752;29;19922;-76
2022/12/28 01:39:36;;;;;;;;;;;;;;;;;;1019544;29;19978;-76
2022/12/28 01:40:08;;;;;;;;;;;;;;;;;;1019364;29;20221;-77
2022/12/28 01:40:39;;;;;;;;;;;;;;;;;;1023852;29;19914;-75
2022/12/28 01:41:10;;;;;;;;;;;;;;;;;;1024297;28;19982;-77
2022/12/28 01:41:41;;;;;;;;;;;;;;;;;;1024408;29;19997;-76
2022/12/28 01:42:12;;;;;;;;;;;;;;;;;;1016955;29;19920;-76
2022/12/28 01:42:43;;;;;;;;;;;;;;;;;;1015945;29;19989;-77
2022/12/28 01:43:14;;;;;;;;;;;;;;;;;;1018567;29;20575;-76
2022/12/28 01:43:45;;;;;;;;;;;;;;;;;;1020267;29;20542;-76
2022/12/28 01:44:16;;;;;;;;;;;;;;;;;;1024220;29;20574;-75
2022/12/28 01:44:47;;;;;;;;;;;;;;;;;;1023770;29;20034;-76
2022/12/28 01:45:17;;;;;;;;;;;;;;;;;;1023709;28;19914;-77
2022/12/28 01:45:48;;;;;;;;;;;;;;;;;;1027677;28;19914;-76
2022/12/28 01:46:19;;;;;;;;;;;;;;;;;;1023685;29;19915;-76
2022/12/28 01:46:50;;;;;;;;;;;;;;;;;;1024814;29;20445;-76
2022/12/28 01:47:21;;;;;;;;;;;;;;;;;;1023638;28;19914;-75
2022/12/28 01:47:52;;;;;;;;;;;;;;;;;;1023925;29;19921;-75
2022/12/28 01:48:23;;;;;;;;;;;;;;;;;;1023601;29;20388;-75
2022/12/28 01:48:54;;;;;;;;;;;;;;;;;;1020032;29;19966;-76
2022/12/28 01:49:24;;;;;;;;;;;;;;;;;;1020425;29;20503;-76
2022/12/28 01:49:55;;;;;;;;;;;;;;;;;;1023881;29;19989;-76
2022/12/28 01:50:26;;;;;;;;;;;;;;;;;;1019541;29;20765;-75
2022/12/28 01:50:57;;;;;;;;;;;;;;;;;;1023624;29;19914;-76
2022/12/28 01:51:28;;;;;;;;;;;;;;;;;;1023150;29;20025;-75
2022/12/28 01:51:59;;;;;;;;;;;;;;;;;;1020725;29;19962;-75
2022/12/28 01:52:30;;;;;;;;;;;;;;;;;;1019391;29;20476;-75
2022/12/28 01:53:00;;;;;;;;;;;;;;;;;;1020038;29;20006;-76
2022/12/28 01:53:31;;;;;;;;;;;;;;;;;;1015847;29;19922;-76
2022/12/28 01:54:02;;;;;;;;;;;;;;;;;;1023860;28;20580;-76
2022/12/28 01:54:33;;;;;;;;;;;;;;;;;;1028411;28;19921;-76
2022/12/28 01:55:04;;;;;;;;;;;;;;;;;;1023630;29;19954;-76
2022/12/28 01:55:35;;;;;;;;;;;;;;;;;;1023127;29;19910;-76
2022/12/28 01:56:06;;;;;;;;;;;;;;;;;;1019816;29;19911;-76
2022/12/28 01:56:37;;;;;;;;;;;;;;;;;;1019948;29;19969;-75
2022/12/28 01:57:08;;;;;;;;;;;;;;;;;;1020629;29;19989;-75
2022/12/28 01:57:39;;;;;;;;;;;;;;;;;;1019892;29;19911;-75
2022/12/28 01:58:09;;;;;;;;;;;;;;;;;;1023398;29;19923;-76
2022/12/28 01:58:40;;;;;;;;;;;;;;;;;;1015644;29;20548;-76
2022/12/28 01:59:11;;;;;;;;;;;;;;;;;;1015836;29;19915;-76
2022/12/28 01:59:42;;;;;;;;;;;;;;;;;;1020547;29;20337;-76
2022/12/28 02:00:13;;;;;;;;;;;;;;;;;;1019634;29;19914;-75
2022/12/28 02:00:44;;;;;;;;;;;;;;;;;;1019767;29;20463;-75
2022/12/28 02:01:16;;;;;;;;;;;;;;;;;;1019507;29;20017;-75
2022/12/28 02:01:47;;;;;;;;;;;;;;;;;;1019688;29;19926;-75
2022/12/28 02:02:17;;;;;;;;;;;;;;;;;;1020905;29;19906;-76
2022/12/28 02:02:48;;;;;;;;;;;;;;;;;;1023768;29;19918;-74
2022/12/28 02:03:19;;;;;;;;;;;;;;;;;;1024076;29;20081;-75
2022/12/28 02:03:50;;;;;;;;;;;;;;;;;;1024521;28;20009;-76
2022/12/28 02:04:21;;;;;;;;;;;;;;;;;;1023619;29;19915;-75
2022/12/28 02:04:52;;;;;;;;;;;;;;;;;;1020179;29;20010;-76
2022/12/28 02:05:23;;;;;;;;;;;;;;;;;;1019796;29;19942;-76
2022/12/28 02:05:54;;;;;;;;;;;;;;;;;;1019925;29;19907;-76
2022/12/28 02:06:24;;;;;;;;;;;;;;;;;;1023783;28;19907;-76
2022/12/28 02:06:55;;;;;;;;;;;;;;;;;;1027951;28;19910;-76
2022/12/28 02:07:26;;;;;;;;;;;;;;;;;;1024205;29;19906;-75
2022/12/28 02:07:57;;;;;;;;;;;;;;;;;;1023765;29;20339;-76
2022/12/28 02:08:28;;;;;;;;;;;;;;;;;;1023584;29;19918;-75
2022/12/28 02:08:59;;;;;;;;;;;;;;;;;;1019893;29;19911;-75
2022/12/28 02:09:30;;;;;;;;;;;;;;;;;;1019464;29;19998;-75
2022/12/28 02:10:00;;;;;;;;;;;;;;;;;;1020738;29;20035;-76
2022/12/28 02:10:31;;;;;;;;;;;;;;;;;;1019929;29;19938;-75
2022/12/28 02:11:02;;;;;;;;;;;;;;;;;;1023777;29;19907;-76
2022/12/28 02:11:33;;;;;;;;;;;;;;;;;;1019389;29;19918;-76
2022/12/28 02:12:04;;;;;;;;;;;;;;;;;;1019960;29;19939;-76
2022/12/28 02:12:35;;;;;;;;;;;;;;;;;;1023090;29;19918;-75
2022/12/28 02:13:06;;;;;;;;;;;;;;;;;;1023911;28;19918;-76
2022/12/28 02:13:37;;;;;;;;;;;;;;;;;;1023573;29;20358;-75
2022/12/28 02:14:07;;;;;;;;;;;;;;;;;;1023528;28;19910;-75
2022/12/28 02:14:38;;;;;;;;;;;;;;;;;;1023529;29;20783;-75
2022/12/28 02:15:09;;;;;;;;;;;;;;;;;;1024376;29;19961;-75
2022/12/28 02:15:40;;;;;;;;;;;;;;;;;;1023518;28;20421;-77
2022/12/28 02:16:11;;;;;;;;;;;;;;;;;;1022795;29;20033;-75
2022/12/28 02:16:42;;;;;;;;;;;;;;;;;;1019408;29;19986;-75
2022/12/28 02:17:13;;;;;;;;;;;;;;;;;;1023253;29;20005;-75
2022/12/28 02:17:44;;;;;;;;;;;;;;;;;;1024005;29;19941;-76
2022/12/28 02:18:15;;;;;;;;;;;;;;;;;;1018934;29;20054;-75
2022/12/28 02:18:46;;;;;;;;;;;;;;;;;;1018795;29;19962;-75
2022/12/28 02:19:16;;;;;;;;;;;;;;;;;;1022927;29;19977;-75
2022/12/28 02:19:47;;;;;;;;;;;;;;;;;;1022854;29;19918;-75
2022/12/28 02:20:18;;;;;;;;;;;;;;;;;;1020031;29;19946;-76
2022/12/28 02:20:49;;;;;;;;;;;;;;;;;;1019455;29;19915;-76
2022/12/28 02:21:20;;;;;;;;;;;;;;;;;;1022067;29;19992;-77
2022/12/28 02:21:51;;;;;;;;;;;;;;;;;;1019242;29;20528;-76
2022/12/28 02:22:22;;;;;;;;;;;;;;;;;;1023241;29;19914;-75
2022/12/28 02:22:52;;;;;;;;;;;;;;;;;;1023118;29;19951;-75
2022/12/28 02:23:23;;;;;;;;;;;;;;;;;;1019223;29;19916;-76
2022/12/28 02:23:54;;;;;;;;;;;;;;;;;;1019179;29;19919;-76
2022/12/28 02:24:25;;;;;;;;;;;;;;;;;;1018877;29;20058;-75
2022/12/28 02:24:56;;;;;;;;;;;;;;;;;;1024961;28;20026;-77
2022/12/28 02:25:27;;;;;;;;;;;;;;;;;;1032492;28;20363;-75
2022/12/28 02:25:58;;;;;;;;;;;;;;;;;;1031008;28;20346;-75
2022/12/28 02:26:29;;;;;;;;;;;;;;;;;;1023539;29;19950;-76
2022/12/28 02:27:00;;;;;;;;;;;;;;;;;;1023682;28;19914;-75
2022/12/28 02:27:31;;;;;;;;;;;;;;;;;;1023812;29;20444;-76
2022/12/28 02:28:02;;;;;;;;;;;;;;;;;;1024483;29;20565;-76
2022/12/28 02:28:32;;;;;;;;;;;;;;;;;;1019939;29;19915;-76
2022/12/28 02:29:03;;;;;;;;;;;;;;;;;;1023698;29;20711;-75
2022/12/28 02:29:34;;;;;;;;;;;;;;;;;;1019120;29;19921;-76
2022/12/28 02:30:06;;;;;;;;;;;;;;;;;;1019652;29;20458;-76
2022/12/28 02:30:36;;;;;;;;;;;;;;;;;;1019761;29;20658;-75
2022/12/28 02:31:07;;;;;;;;;;;;;;;;;;1019368;29;20685;-76
2022/12/28 02:31:38;;;;;;;;;;;;;;;;;;1019365;29;19918;-76
2022/12/28 02:32:09;;;;;;;;;;;;;;;;;;1018923;29;20394;-76
2022/12/28 02:32:40;;;;;;;;;;;;;;;;;;1023307;29;19914;-76
2022/12/28 02:33:11;;;;;;;;;;;;;;;;;;1019887;29;20537;-75
2022/12/28 02:33:42;;;;;;;;;;;;;;;;;;1023207;29;20298;-77
2022/12/28 02:34:12;;;;;;;;;;;;;;;;;;1023109;29;19921;-77
2022/12/28 02:34:43;;;;;;;;;;;;;;;;;;1023422;28;20589;-77
2022/12/28 02:35:14;;;;;;;;;;;;;;;;;;1027381;28;19957;-76
2022/12/28 02:35:45;;;;;;;;;;;;;;;;;;1028172;28;20313;-76
2022/12/28 02:36:16;;;;;;;;;;;;;;;;;;1027751;28;19914;-76
2022/12/28 02:36:47;;;;;;;;;;;;;;;;;;1023057;29;19961;-77
2022/12/28 02:37:18;;;;;;;;;;;;;;;;;;1023201;29;20005;-77
2022/12/28 02:37:49;;;;;;;;;;;;;;;;;;1023059;29;19971;-77
2022/12/28 02:38:19;;;;;;;;;;;;;;;;;;1023998;29;19941;-76
2022/12/28 02:38:50;;;;;;;;;;;;;;;;;;1023542;29;19924;-76
2022/12/28 02:39:22;;;;;;;;;;;;;;;;;;1023220;29;20546;-76
2022/12/28 02:39:53;;;;;;;;;;;;;;;;;;1021484;29;20603;-77
2022/12/28 02:40:23;;;;;;;;;;;;;;;;;;1022994;29;20650;-76
2022/12/28 02:40:54;;;;;;;;;;;;;;;;;;1023244;29;19918;-76
2022/12/28 02:41:25;;;;;;;;;;;;;;;;;;1019211;29;20922;-76
2022/12/28 02:41:56;;;;;;;;;;;;;;;;;;1018806;29;19921;-77
2022/12/28 02:42:27;;;;;;;;;;;;;;;;;;1019010;29;19914;-77
2022/12/28 02:42:58;;;;;;;;;;;;;;;;;;1020089;28;20553;-77
2022/12/28 02:43:29;;;;;;;;;;;;;;;;;;1024026;29;19963;-76
2022/12/28 02:44:00;;;;;;;;;;;;;;;;;;1023410;29;20772;-76
2022/12/28 02:50:18;;;;;;;;;;;;;;;;;;1027767;28;20455;-76
2022/12/28 02:50:49;;;;;;;;;;;;;;;;;;1027755;28;19914;-77
2022/12/28 02:51:23;;;;;;;;;;;;;;;;;;1028436;28;19914;-76
2022/12/28 02:51:54;;;;;;;;;;;;;;;;;;1023761;29;20021;-76
2022/12/28 02:52:25;;;;;;;;;;;;;;;;;;1019287;29;19915;-76
2022/12/28 02:52:56;;;;;;;;;;;;;;;;;;1017825;29;19954;-76
2022/12/28 02:53:26;;;;;;;;;;;;;;;;;;1018380;29;19941;-76
2022/12/28 02:53:57;;;;;;;;;;;;;;;;;;1020231;29;19966;-75
2022/12/28 02:56:07;;;;;;;;;;;;;;;;;;1024070;29;20601;-77
2022/12/28 02:56:38;;;;;;;;;;;;;;;;;;1019966;29;20441;-76
2022/12/28 02:57:09;;;;;;;;;;;;;;;;;;1019376;29;19915;-77
2022/12/28 02:57:40;;;;;;;;;;;;;;;;;;1019600;29;19922;-76
2022/12/28 02:58:10;;;;;;;;;;;;;;;;;;1019458;29;20582;-77
2022/12/28 02:58:41;;;;;;;;;;;;;;;;;;1015516;29;20740;-77
2022/12/28 02:59:14;;;;;;;;;;;;;;;;;;1016408;29;20287;-77
2022/12/28 02:59:45;;;;;;;;;;;;;;;;;;1015976;29;19920;-76
2022/12/28 03:00:16;;;;;;;;;;;;;;;;;;1016196;29;19911;-77
2022/12/28 03:00:46;;;;;;;;;;;;;;;;;;1015397;29;20486;-77
2022/12/28 03:01:17;;;;;;;;;;;;;;;;;;1015693;29;19931;-76
2022/12/28 03:01:48;;;;;;;;;;;;;;;;;;1015977;29;19945;-76
2022/12/28 03:02:19;;;;;;;;;;;;;;;;;;1015664;29;20371;-77
2022/12/28 03:02:50;;;;;;;;;;;;;;;;;;1015369;29;19916;-76
2022/12/28 03:03:21;;;;;;;;;;;;;;;;;;1015659;29;20011;-76
2022/12/28 03:03:52;;;;;;;;;;;;;;;;;;1015407;29;19915;-76
2022/12/28 03:04:23;;;;;;;;;;;;;;;;;;1016194;29;19915;-77
2022/12/28 03:04:53;;;;;;;;;;;;;;;;;;1019444;29;20465;-76
2022/12/28 03:08:13;;;;;;;;;;;;;;;;;;1015710;29;19915;-76
2022/12/28 03:08:44;;;;;;;;;;;;;;;;;;1023806;29;19921;-77
2022/12/28 03:09:15;;;;;;;;;;;;;;;;;;1018999;29;19919;-76
2022/12/28 03:09:46;;;;;;;;;;;;;;;;;;1015865;29;19974;-76
2022/12/28 03:10:17;;;;;;;;;;;;;;;;;;1015221;29;19953;-76
2022/12/28 03:10:47;;;;;;;;;;;;;;;;;;1015895;29;19915;-77
2022/12/28 03:11:18;;;;;;;;;;;;;;;;;;1015642;29;20666;-76
2022/12/28 03:11:49;;;;;;;;;;;;;;;;;;1019404;29;19915;-77
2022/12/28 03:12:20;;;;;;;;;;;;;;;;;;1019755;29;19915;-77
2022/12/28 03:12:51;;;;;;;;;;;;;;;;;;1019537;29;19914;-76
2022/12/28 03:14:11;;;;;;;;;;;;;;;;;;1023358;28;20045;-76
2022/12/28 03:14:42;;;;;;;;;;;;;;;;;;1017691;29;19910;-78
2022/12/28 03:15:13;;;;;;;;;;;;;;;;;;1015085;29;20029;-77
2022/12/28 03:15:44;;;;;;;;;;;;;;;;;;1015588;29;19920;-77
2022/12/28 03:16:15;;;;;;;;;;;;;;;;;;1019719;29;19915;-76
2022/12/28 03:31:04;;;;;;;;;;;;;;;;;;1019938;29;20581;-76
2022/12/28 03:31:35;;;;;;;;;;;;;;;;;;1019955;29;20013;-75
2022/12/28 03:32:06;;;;;;;;;;;;;;;;;;1019202;29;20628;-77
2022/12/28 03:32:37;;;;;;;;;;;;;;;;;;1019753;29;19915;-75
2022/12/28 03:33:08;;;;;;;;;;;;;;;;;;1023578;29;19910;-78
2022/12/28 03:33:39;;;;;;;;;;;;;;;;;;1023678;29;19922;-75
2022/12/28 03:34:10;;;;;;;;;;;;;;;;;;1023557;29;20557;-76
2022/12/28 03:34:41;;;;;;;;;;;;;;;;;;1019160;29;19954;-75
2022/12/28 03:35:12;;;;;;;;;;;;;;;;;;1019245;29;19975;-76
2022/12/28 03:35:42;;;;;;;;;;;;;;;;;;1019754;29;19921;-77
2022/12/28 03:36:13;;;;;;;;;;;;;;;;;;1019446;29;20001;-77
2022/12/28 03:36:44;;;;;;;;;;;;;;;;;;1023512;29;19918;-77
2022/12/28 03:37:15;;;;;;;;;;;;;;;;;;1023501;29;19914;-77
2022/12/28 03:37:46;;;;;;;;;;;;;;;;;;1022822;29;19956;-77
2022/12/28 03:38:25;;;;;;;;;;;;;;;;;;1023356;29;19925;-76
2022/12/28 03:38:56;;;;;;;;;;;;;;;;;;1021450;29;19930;-76
2022/12/28 03:39:27;;;;;;;;;;;;;;;;;;1018375;29;19921;-77
2022/12/28 03:39:58;;;;;;;;;;;;;;;;;;1017798;29;19922;-76
2022/12/28 03:40:29;;;;;;;;;;;;;;;;;;1018635;29;19982;-77
2022/12/28 03:41:03;;;;;;;;;;;;;;;;;;1019018;29;20645;-75
2022/12/28 03:41:35;;;;;;;;;;;;;;;;;;1021414;29;20061;-76
2022/12/28 03:43:45;;;;;;;;;;;;;;;;;;1023449;29;20382;-75
2022/12/28 03:44:16;;;;;;;;;;;;;;;;;;1019208;29;20429;-75
2022/12/28 03:44:46;;;;;;;;;;;;;;;;;;1015289;29;20029;-77
2022/12/28 03:45:17;;;;;;;;;;;;;;;;;;1015275;29;19916;-77
2022/12/28 03:45:48;;;;;;;;;;;;;;;;;;1016090;29;19962;-76
2022/12/28 03:46:19;;;;;;;;;;;;;;;;;;1019315;29;20297;-77
2022/12/28 03:46:50;;;;;;;;;;;;;;;;;;1023592;29;20661;-76
2022/12/28 03:47:21;;;;;;;;;;;;;;;;;;1019214;29;19921;-76
2022/12/28 03:47:52;;;;;;;;;;;;;;;;;;1019172;29;19922;-77
2022/12/28 03:48:23;;;;;;;;;;;;;;;;;;1019653;29;19993;-77
2022/12/28 03:48:54;;;;;;;;;;;;;;;;;;1019298;29;20033;-77
2022/12/28 03:49:24;;;;;;;;;;;;;;;;;;1019163;29;20563;-76
2022/12/28 03:49:55;;;;;;;;;;;;;;;;;;1019941;29;19923;-77
2022/12/28 03:50:26;;;;;;;;;;;;;;;;;;1019685;29;19950;-76
2022/12/28 03:50:57;;;;;;;;;;;;;;;;;;1023978;29;19914;-77
2022/12/28 03:51:28;;;;;;;;;;;;;;;;;;1019460;29;19942;-76
2022/12/28 03:51:59;;;;;;;;;;;;;;;;;;1020524;29;20378;-77
2022/12/28 03:52:30;;;;;;;;;;;;;;;;;;1019045;29;19915;-77
2022/12/28 03:53:00;;;;;;;;;;;;;;;;;;1019610;29;20626;-76
2022/12/28 03:53:31;;;;;;;;;;;;;;;;;;1015516;29;19922;-77
2022/12/28 03:54:02;;;;;;;;;;;;;;;;;;1017791;29;20351;-76
2022/12/28 03:54:33;;;;;;;;;;;;;;;;;;1018406;29;19914;-77
2022/12/28 03:55:04;;;;;;;;;;;;;;;;;;1014855;29;20589;-76
2022/12/28 03:55:36;;;;;;;;;;;;;;;;;;1016635;29;19919;-77
2022/12/28 03:56:07;;;;;;;;;;;;;;;;;;1023035;29;20012;-76
2022/12/28 03:56:38;;;;;;;;;;;;;;;;;;1023137;28;19961;-76
2022/12/28 03:57:09;;;;;;;;;;;;;;;;;;1022367;29;20027;-76
2022/12/28 03:57:40;;;;;;;;;;;;;;;;;;1018370;29;19910;-76
2022/12/28 03:58:11;;;;;;;;;;;;;;;;;;1018517;29;19911;-76